»·PEaware :: N786SC KIFP-KTRM

N786SC :: KIFP-KTRM

FLIGHT INFORMATION

Flight Status: Arrived
Operator: Privately registered:
United States
More flights under this callsign
Pilot: Jereme M. (20698)
Aircraft: CESSNA 172 SKYHAWK
(C172)
More flights by this aircraft type
Origin: KIFP Laughlin/Bullhead Intl
United States
Destination: KTRM Desert Resorts Regl
United States
More flights between these airports :: More routes between these airports
Route:
File this flight plan on PilotEdge
Remarks:
Altitude:
(Current/Filed)
8,500ft
Speed:
(Current/Filed)
110kts
Departed: 18-Jul-19 03:09 PM
Arrived: 18-Jul-19 04:28 PM
Distance/Time
Traveled:
121nm/1:19
Distance/Time
To Go:
Arrived

Flight Plot

Page will automatically refresh every two minutes.


Map Options




Map Legend


Flown Route
Filed Route
Departure Airport
Arrival Airport
Navaid (VOR, NDB)
Fix

Horizontal Profiles

Position Reports

Time Latitude Longitude Heading Altitude Ground
Speed
18-Jul-19 14:38 35.158610 -114.556020 266 705ft 0kts
18-Jul-19 14:39 35.158610 -114.556020 266 705ft 0kts
18-Jul-19 14:40 35.158610 -114.556020 266 705ft 0kts
18-Jul-19 14:41 35.158610 -114.556020 266 705ft 0kts
18-Jul-19 14:42 35.158610 -114.556020 266 705ft 0kts
18-Jul-19 14:44 35.158610 -114.556020 266 705ft 0kts
18-Jul-19 14:45 35.158610 -114.556020 266 705ft 0kts
18-Jul-19 14:46 35.158610 -114.556020 266 705ft 0kts
18-Jul-19 14:47 35.158610 -114.556020 266 705ft 0kts
18-Jul-19 14:48 35.158610 -114.556020 266 705ft 0kts
18-Jul-19 14:49 35.158610 -114.556020 266 705ft 0kts
18-Jul-19 14:50 35.158610 -114.556020 266 705ft 0kts
18-Jul-19 14:51 35.158610 -114.556020 266 705ft 0kts
18-Jul-19 14:52 35.158610 -114.556020 266 705ft 0kts
18-Jul-19 14:53 35.158610 -114.556020 266 705ft 0kts
18-Jul-19 14:54 35.158610 -114.556020 266 705ft 0kts
18-Jul-19 14:55 35.158610 -114.556020 266 705ft 0kts
18-Jul-19 14:56 35.158610 -114.556020 266 705ft 0kts
18-Jul-19 14:57 35.158610 -114.556020 266 705ft 0kts
18-Jul-19 14:58 35.158610 -114.556020 266 705ft 0kts
18-Jul-19 14:59 35.158610 -114.556020 266 705ft 0kts
18-Jul-19 15:00 35.158610 -114.556020 266 705ft 0kts
18-Jul-19 15:00 35.158610 -114.556020 266 705ft 0kts
18-Jul-19 15:02 35.158610 -114.556020 266 705ft 0kts
18-Jul-19 15:03 35.158610 -114.556020 266 705ft 0kts
18-Jul-19 15:03 35.158610 -114.556027 266 705ft 1kts
18-Jul-19 15:05 35.159741 -114.558307 352 705ft 10kts
18-Jul-19 15:06 35.164641 -114.558708 357 705ft 19kts
18-Jul-19 15:06 35.166207 -114.559258 277 705ft 0kts
18-Jul-19 15:08 35.166127 -114.560032 232 705ft 6kts
18-Jul-19 15:08 35.155043 -114.560797 183 1153ft 66kts
18-Jul-19 15:09 35.136121 -114.565922 190 2066ft 73kts
18-Jul-19 15:10 35.120427 -114.582359 226 2959ft 76kts
18-Jul-19 15:11 35.105610 -114.599805 219 3845ft 73kts
18-Jul-19 15:12 35.090260 -114.616935 218 4644ft 76kts
18-Jul-19 15:13 35.074687 -114.634108 218 5440ft 74kts
18-Jul-19 15:14 35.059744 -114.650460 218 6159ft 74kts
18-Jul-19 15:15 35.043406 -114.668195 218 6803ft 78kts
18-Jul-19 15:16 35.027563 -114.685432 218 7425ft 77kts
18-Jul-19 15:17 35.011423 -114.702979 219 7920ft 76kts
18-Jul-19 15:18 34.995798 -114.719900 219 8366ft 76kts
18-Jul-19 15:19 34.977907 -114.739299 219 8466ft 94kts
18-Jul-19 15:20 34.957483 -114.761474 219 8465ft 100kts
18-Jul-19 15:21 34.937415 -114.783208 219 8464ft 93kts
18-Jul-19 15:22 34.918080 -114.804045 219 8465ft 93kts
18-Jul-19 15:23 34.898412 -114.825247 219 8467ft 94kts
18-Jul-19 15:24 34.878446 -114.846763 219 8467ft 96kts
18-Jul-19 15:25 34.858286 -114.868493 219 8472ft 97kts
18-Jul-19 15:26 34.838044 -114.890280 219 8478ft 97kts
18-Jul-19 15:27 34.817810 -114.912034 219 8484ft 97kts
18-Jul-19 15:28 34.797561 -114.933781 219 8489ft 97kts
18-Jul-19 15:29 34.777220 -114.955628 219 8495ft 98kts
18-Jul-19 15:30 34.756362 -114.978003 220 8499ft 100kts
18-Jul-19 15:31 34.735280 -115.000626 220 8501ft 101kts
18-Jul-19 15:32 34.714109 -115.023319 220 8501ft 101kts
18-Jul-19 15:33 34.692755 -115.046184 220 8496ft 102kts
18-Jul-19 15:34 34.671303 -115.069140 220 8492ft 102kts
18-Jul-19 15:35 34.649799 -115.092123 220 8487ft 102kts
18-Jul-19 15:36 34.628323 -115.115086 220 8483ft 103kts
18-Jul-19 15:37 34.606720 -115.138141 220 8479ft 103kts
18-Jul-19 15:38 34.585141 -115.161166 220 8474ft 103kts
18-Jul-19 15:39 34.563617 -115.184122 220 8469ft 103kts
18-Jul-19 15:40 34.542039 -115.207079 220 8466ft 102kts
18-Jul-19 15:41 34.520604 -115.229899 220 8466ft 102kts
18-Jul-19 15:42 34.499204 -115.252671 220 8466ft 102kts
18-Jul-19 15:43 34.477775 -115.275455 220 8466ft 102kts
18-Jul-19 15:44 34.456368 -115.298198 220 8466ft 102kts
18-Jul-19 15:45 34.434864 -115.321025 220 8466ft 102kts
18-Jul-19 15:46 34.413347 -115.343847 220 8466ft 103kts
18-Jul-19 15:47 34.391750 -115.366752 220 8465ft 103kts
18-Jul-19 15:48 34.370174 -115.389615 220 8465ft 103kts
18-Jul-19 15:49 34.348538 -115.412519 220 8465ft 103kts
18-Jul-19 15:50 34.326839 -115.435476 220 8465ft 103kts
18-Jul-19 15:51 34.305089 -115.458472 220 8465ft 103kts
18-Jul-19 15:52 34.283390 -115.481402 220 8465ft 103kts
18-Jul-19 15:53 34.261807 -115.504185 220 8465ft 103kts
18-Jul-19 15:54 34.240121 -115.527063 220 8465ft 103kts
18-Jul-19 15:55 34.218490 -115.549865 220 8476ft 102kts
18-Jul-19 15:56 34.196995 -115.572513 220 8488ft 102kts
18-Jul-19 15:57 34.175530 -115.595112 220 8500ft 102kts
18-Jul-19 15:58 34.153935 -115.617832 220 8512ft 103kts
18-Jul-19 15:59 34.132255 -115.640633 220 8525ft 102kts
18-Jul-19 16:00 34.110613 -115.663361 219 8538ft 102kts
18-Jul-19 16:01 34.089002 -115.686048 219 8550ft 102kts
18-Jul-19 16:02 34.067388 -115.708725 219 8557ft 103kts
18-Jul-19 16:03 34.045895 -115.731250 221 8556ft 99kts
18-Jul-19 16:04 34.025860 -115.752328 221 8556ft 93kts
18-Jul-19 16:05 34.006315 -115.772758 221 8556ft 92kts
18-Jul-19 16:06 33.986230 -115.791955 218 8556ft 91kts
18-Jul-19 16:07 33.966376 -115.811307 221 8556ft 92kts
18-Jul-19 16:08 33.946955 -115.831415 221 8556ft 92kts
18-Jul-19 16:09 33.927608 -115.851581 221 8441ft 90kts
18-Jul-19 16:10 33.909300 -115.870685 221 7927ft 87kts
18-Jul-19 16:11 33.890197 -115.890604 221 7427ft 95kts
18-Jul-19 16:12 33.869260 -115.912364 221 6940ft 101kts
18-Jul-19 16:13 33.847710 -115.934748 221 6449ft 102kts
18-Jul-19 16:14 33.826146 -115.957242 221 5958ft 102kts
18-Jul-19 16:15 33.804298 -115.979985 221 5465ft 105kts
18-Jul-19 16:16 33.780444 -116.004717 220 4775ft 118kts
18-Jul-19 16:17 33.756715 -116.029338 220 3868ft 109kts
18-Jul-19 16:18 33.734007 -116.052875 220 2964ft 106kts
18-Jul-19 16:19 33.712133 -116.075482 220 2131ft 102kts
18-Jul-19 16:20 33.691090 -116.098022 224 1358ft 101kts
18-Jul-19 16:21 33.671958 -116.121047 226 943ft 93kts
18-Jul-19 16:22 33.652555 -116.140134 201 944ft 91kts
18-Jul-19 16:23 33.627387 -116.142666 180 954ft 91kts
18-Jul-19 16:24 33.603084 -116.142138 178 734ft 81kts
18-Jul-19 16:25 33.596692 -116.155428 346 271ft 76kts
18-Jul-19 16:26 33.611317 -116.156959 358 -101ft 41kts
18-Jul-19 16:27 33.623594 -116.156485 359 -109ft 28kts
18-Jul-19 16:28 33.624988 -116.157490 250 -109ft 0kts

Navigation Log

Ident Type
Flight plan parsing failed, navigation log unavailable